createdAt,value
2019-02-06T00:00:27.245Z,4.36
2019-02-06T00:01:26.710Z,4.35
2019-02-06T00:02:26.146Z,4.37
2019-02-06T00:03:26.291Z,4.35
2019-02-06T00:04:25.979Z,4.35
2019-02-06T00:05:25.874Z,4.35
2019-02-06T00:06:27.173Z,4.36
2019-02-06T00:07:25.977Z,4.37
2019-02-06T00:08:26.580Z,4.36
2019-02-06T00:09:26.260Z,4.34
2019-02-06T00:10:26.440Z,4.35
2019-02-06T00:11:25.777Z,4.34
2019-02-06T00:12:26.111Z,4.33
2019-02-06T00:13:26.450Z,4.34
2019-02-06T00:14:26.271Z,4.35
2019-02-06T00:15:26.612Z,4.34
2019-02-06T00:16:26.056Z,4.33
2019-02-06T00:17:26.525Z,4.34
2019-02-06T00:18:26.391Z,4.33
2019-02-06T00:19:25.925Z,4.31
2019-02-06T00:20:26.210Z,4.32
2019-02-06T00:21:27.965Z,4.33
2019-02-06T00:22:26.125Z,4.32
2019-02-06T00:23:26.417Z,4.32
2019-02-06T00:24:27.136Z,4.32
2019-02-06T00:25:27.690Z,4.31
2019-02-06T00:26:26.212Z,4.31
2019-02-06T00:27:26.142Z,4.33
2019-02-06T00:28:25.897Z,4.31
2019-02-06T00:29:26.020Z,4.32
2019-02-06T00:30:25.866Z,4.32
2019-02-06T00:31:25.857Z,4.31
2019-02-06T00:32:26.157Z,4.31
2019-02-06T00:33:26.160Z,4.31
2019-02-06T00:34:25.941Z,4.31
2019-02-06T00:35:26.532Z,4.31
2019-02-06T00:36:26.169Z,4.3
2019-02-06T00:37:25.816Z,4.29
2019-02-06T00:38:26.107Z,4.3
2019-02-06T00:39:26.866Z,4.31
2019-02-06T00:40:26.110Z,4.3
2019-02-06T00:41:26.118Z,4.3
2019-02-06T00:42:26.924Z,4.3
2019-02-06T00:43:25.947Z,4.31
2019-02-06T00:44:27.296Z,4.3
2019-02-06T00:45:25.786Z,4.3
2019-02-06T00:46:26.199Z,4.3
2019-02-06T00:47:25.830Z,4.29
2019-02-06T00:48:25.808Z,4.29
2019-02-06T00:49:25.824Z,4.31
2019-02-06T00:50:25.831Z,4.28
2019-02-06T00:51:26.066Z,4.29
2019-02-06T00:52:27.970Z,4.29
2019-02-06T00:53:26.010Z,4.28
2019-02-06T00:54:26.091Z,4.27
2019-02-06T00:55:25.758Z,4.28
2019-02-06T00:56:25.767Z,4.26
2019-02-06T00:57:25.961Z,4.28
2019-02-06T00:58:26.120Z,4.26
2019-02-06T00:59:26.117Z,4.27
2019-02-06T01:00:25.793Z,4.26
2019-02-06T01:01:25.764Z,4.28
2019-02-06T01:02:26.353Z,4.27
2019-02-06T01:03:25.848Z,4.26
2019-02-06T01:04:25.910Z,4.27
2019-02-06T01:05:39.071Z,4.26
2019-02-06T01:06:25.734Z,4.26
2019-02-06T01:07:27.550Z,4.25
2019-02-06T01:08:26.077Z,4.24
2019-02-06T01:09:25.750Z,4.24
2019-02-06T01:10:25.744Z,4.25
2019-02-06T01:11:25.854Z,4.25
2019-02-06T01:12:26.417Z,4.23
2019-02-06T01:13:25.751Z,4.24
2019-02-06T01:14:25.859Z,4.24
2019-02-06T01:15:27.821Z,4.24
2019-02-06T01:16:25.821Z,4.24
2019-02-06T01:17:26.263Z,4.24
2019-02-06T01:18:26.882Z,4.22
2019-02-06T01:19:26.467Z,4.22
2019-02-06T01:20:25.792Z,4.23
2019-02-06T01:21:25.863Z,4.23
2019-02-06T01:22:27.550Z,4.22
2019-02-06T01:23:26.487Z,4.22
2019-02-06T01:24:25.727Z,4.22
2019-02-06T01:25:26.199Z,4.21
2019-02-06T01:26:25.834Z,4.21
2019-02-06T01:27:25.738Z,4.21
2019-02-06T01:28:26.217Z,4.2
2019-02-06T01:29:26.223Z,4.2
2019-02-06T01:30:28.287Z,4.19
2019-02-06T01:31:25.869Z,4.19
2019-02-06T01:32:25.707Z,4.18
2019-02-06T01:33:25.724Z,4.2
2019-02-06T01:34:26.109Z,4.19
2019-02-06T01:35:25.869Z,4.18
2019-02-06T01:36:26.185Z,4.17
2019-02-06T01:37:27.142Z,4.18
2019-02-06T01:38:25.727Z,4.16
2019-02-06T01:39:26.080Z,4.15
2019-02-06T01:40:25.739Z,4.17
2019-02-06T01:41:25.814Z,4.16
2019-02-06T01:42:25.683Z,4.15
2019-02-06T01:43:26.112Z,4.15
2019-02-06T01:44:26.115Z,4.15
2019-02-06T01:45:27.903Z,4.15
2019-02-06T01:46:25.847Z,4.16
2019-02-06T01:47:25.892Z,4.15
2019-02-06T01:48:26.041Z,4.16
2019-02-06T01:49:25.889Z,4.16
2019-02-06T01:50:26.227Z,4.15
2019-02-06T01:51:25.982Z,4.14
2019-02-06T01:52:26.712Z,4.15
2019-02-06T01:53:25.948Z,4.14
2019-02-06T01:54:25.864Z,4.15
2019-02-06T01:55:26.107Z,4.13
2019-02-06T01:56:25.682Z,4.12
2019-02-06T01:57:26.006Z,4.12
2019-02-06T01:58:26.321Z,4.12
2019-02-06T01:59:25.724Z,4.13
2019-02-06T02:00:27.797Z,4.13
2019-02-06T02:01:25.770Z,4.11
2019-02-06T02:02:25.720Z,4.11
2019-02-06T02:03:25.666Z,4.11
2019-02-06T02:04:25.935Z,4.1
2019-02-06T02:05:25.784Z,4.1
2019-02-06T02:06:25.658Z,4.08
2019-02-06T02:07:26.831Z,4.09
2019-02-06T02:08:25.897Z,4.08
2019-02-06T02:09:25.709Z,4.09
2019-02-06T02:10:26.085Z,4.09
2019-02-06T02:11:25.750Z,4.08
2019-02-06T02:12:25.765Z,4.08
2019-02-06T02:13:25.861Z,4.08
2019-02-06T02:14:26.116Z,4.09
2019-02-06T02:15:27.486Z,4.08
2019-02-06T02:16:25.650Z,4.07
2019-02-06T02:17:25.745Z,4.1
2019-02-06T02:18:25.654Z,4.09
2019-02-06T02:19:25.646Z,4.09
2019-02-06T02:20:25.960Z,4.09
2019-02-06T02:21:26.044Z,4.1
2019-02-06T02:22:25.721Z,4.09
2019-02-06T02:23:27.540Z,4.08
2019-02-06T02:24:25.664Z,4.1
2019-02-06T02:25:25.635Z,4.08
2019-02-06T02:26:25.986Z,4.08
2019-02-06T02:27:25.681Z,4.07
2019-02-06T02:28:25.990Z,4.09
2019-02-06T02:29:25.980Z,4.07
2019-02-06T02:30:25.865Z,4.08
2019-02-06T02:31:25.779Z,4.09
2019-02-06T02:32:25.923Z,4.09
2019-02-06T02:33:25.666Z,4.1
2019-02-06T02:34:25.836Z,4.09
2019-02-06T02:35:25.623Z,4.11
2019-02-06T02:36:25.701Z,4.09
2019-02-06T02:37:25.668Z,4.1
2019-02-06T02:38:26.648Z,4.1
2019-02-06T02:39:25.619Z,4.12
2019-02-06T02:40:25.657Z,4.12
2019-02-06T02:41:25.732Z,4.12
2019-02-06T02:42:25.636Z,4.11
2019-02-06T02:43:25.623Z,4.12
2019-02-06T02:44:25.668Z,4.1
2019-02-06T02:45:25.663Z,4.1
2019-02-06T02:46:27.179Z,4.11
2019-02-06T02:47:25.647Z,4.1
2019-02-06T02:48:25.609Z,4.11
2019-02-06T02:49:25.694Z,4.1
2019-02-06T02:50:25.671Z,4.09
2019-02-06T02:51:25.696Z,4.1
2019-02-06T02:52:25.711Z,4.1
2019-02-06T02:53:25.583Z,4.1
2019-02-06T02:54:25.674Z,4.11
2019-02-06T02:55:25.877Z,4.09
2019-02-06T02:56:25.625Z,4.1
2019-02-06T02:57:25.640Z,4.1
2019-02-06T02:58:25.612Z,4.1
2019-02-06T02:59:25.707Z,4.1
2019-02-06T03:00:25.606Z,4.11
2019-02-06T03:01:26.661Z,4.1
2019-02-06T03:02:25.904Z,4.11
2019-02-06T03:03:25.627Z,4.1
2019-02-06T03:04:25.674Z,4.1
2019-02-06T03:05:25.730Z,4.09
2019-02-06T03:06:28.950Z,4.11
2019-02-06T03:07:25.815Z,4.11
2019-02-06T03:08:25.565Z,4.11
2019-02-06T03:09:27.739Z,4.11
2019-02-06T03:10:25.664Z,4.1
2019-02-06T03:11:25.632Z,4.11
2019-02-06T03:12:25.583Z,4.1
2019-02-06T03:13:25.638Z,4.1
2019-02-06T03:14:25.854Z,4.09
2019-02-06T03:15:25.934Z,4.1
2019-02-06T03:16:25.813Z,4.1
2019-02-06T03:17:26.020Z,4.08
2019-02-06T03:18:25.653Z,4.08
2019-02-06T03:19:25.588Z,4.08
2019-02-06T03:20:25.632Z,4.09
2019-02-06T03:21:25.675Z,4.09
2019-02-06T03:22:25.864Z,4.08
2019-02-06T03:23:25.556Z,4.09
2019-02-06T03:24:26.848Z,4.09
2019-02-06T03:25:25.653Z,4.08
2019-02-06T03:26:25.535Z,4.09
2019-02-06T03:27:25.621Z,4.07
2019-02-06T03:28:25.601Z,4.08
2019-02-06T03:29:25.794Z,4.08
2019-02-06T03:30:26.349Z,4.08
2019-02-06T03:31:25.765Z,4.07
2019-02-06T03:32:27.993Z,4.08
2019-02-06T03:33:25.568Z,4.07
2019-02-06T03:34:25.552Z,4.09
2019-02-06T03:35:26.357Z,4.07
2019-02-06T03:36:25.550Z,4.06
2019-02-06T03:37:25.587Z,4.06
2019-02-06T03:38:26.162Z,4.07
2019-02-06T03:39:25.665Z,4.06
2019-02-06T03:40:25.541Z,4.05
2019-02-06T03:41:25.670Z,4.06
2019-02-06T03:42:25.794Z,4.05
2019-02-06T03:43:25.801Z,4.05
2019-02-06T03:44:25.885Z,4.04
2019-02-06T03:45:25.651Z,4.04
2019-02-06T03:46:25.583Z,4.02
2019-02-06T03:47:27.503Z,4.04
2019-02-06T03:48:25.631Z,4.03
2019-02-06T03:49:25.574Z,4.03
2019-02-06T03:50:25.553Z,4.01
2019-02-06T03:51:25.710Z,4.01
2019-02-06T03:52:25.643Z,4
2019-02-06T03:53:25.508Z,4.01
2019-02-06T03:54:25.846Z,4
2019-02-06T03:55:25.799Z,4.01
2019-02-06T03:56:25.514Z,4.01
2019-02-06T03:57:25.539Z,4
2019-02-06T03:58:25.689Z,4.01
2019-02-06T03:59:26.051Z,4.02
2019-02-06T04:00:25.781Z,4.01
2019-02-06T04:01:25.480Z,4.02
2019-02-06T04:02:26.877Z,4
2019-02-06T04:03:25.519Z,3.99
2019-02-06T04:04:25.707Z,3.99
2019-02-06T04:05:25.940Z,3.98
2019-02-06T04:06:25.588Z,3.99
2019-02-06T04:07:25.730Z,3.99
2019-02-06T04:08:25.956Z,4
2019-02-06T04:09:25.592Z,4.02
2019-02-06T04:10:27.537Z,4.01
2019-02-06T04:11:25.834Z,4
2019-02-06T04:12:25.564Z,4.01
2019-02-06T04:13:25.627Z,4.01
2019-02-06T04:14:25.658Z,4
2019-02-06T04:15:25.507Z,4
2019-02-06T04:16:25.563Z,4
2019-02-06T04:17:25.610Z,3.98
2019-02-06T04:18:25.562Z,3.99
2019-02-06T04:19:25.499Z,3.99
2019-02-06T04:20:25.586Z,3.99
2019-02-06T04:21:25.737Z,3.99
2019-02-06T04:22:25.496Z,3.97
2019-02-06T04:23:25.471Z,4
2019-02-06T04:24:25.468Z,3.99
2019-02-06T04:25:26.933Z,3.99
2019-02-06T04:26:25.584Z,3.98
2019-02-06T04:27:25.486Z,4
2019-02-06T04:28:25.603Z,4
2019-02-06T04:29:25.465Z,3.99
2019-02-06T04:30:25.665Z,3.98
2019-02-06T04:31:25.625Z,4.01
2019-02-06T04:32:25.547Z,4
2019-02-06T04:33:27.686Z,4.01
2019-02-06T04:34:25.582Z,4.02
2019-02-06T04:35:25.520Z,4
2019-02-06T04:36:25.425Z,3.99
2019-02-06T04:37:25.536Z,3.97
2019-02-06T04:38:25.466Z,3.99
2019-02-06T04:39:25.625Z,4
2019-02-06T04:40:25.420Z,3.99
2019-02-06T04:41:25.499Z,4
2019-02-06T04:42:25.615Z,3.99
2019-02-06T04:43:25.440Z,3.98
2019-02-06T04:44:25.665Z,3.99
2019-02-06T04:45:25.433Z,3.99
2019-02-06T04:46:26.021Z,3.98
2019-02-06T04:47:25.445Z,3.96
2019-02-06T04:48:27.071Z,3.97
2019-02-06T04:49:25.690Z,3.97
2019-02-06T04:50:25.678Z,3.99
2019-02-06T04:51:25.772Z,3.97
2019-02-06T04:52:25.478Z,3.97
2019-02-06T04:53:25.492Z,3.96
2019-02-06T04:54:25.858Z,3.97
2019-02-06T04:55:25.754Z,3.97
2019-02-06T04:56:28.235Z,3.95
2019-02-06T04:57:25.515Z,3.96
2019-02-06T04:58:25.580Z,3.97
2019-02-06T04:59:25.869Z,3.95
2019-02-06T05:00:25.640Z,3.95
2019-02-06T05:01:26.509Z,3.95
2019-02-06T05:02:25.919Z,3.95
2019-02-06T05:03:26.364Z,3.95
2019-02-06T05:04:25.523Z,3.94
2019-02-06T05:05:25.583Z,3.93
2019-02-06T05:06:25.424Z,3.93
2019-02-06T05:07:25.714Z,3.94
2019-02-06T05:08:25.548Z,3.95
2019-02-06T05:09:25.814Z,3.99
2019-02-06T05:10:25.396Z,3.98
2019-02-06T05:11:28.026Z,3.97
2019-02-06T05:12:25.822Z,3.97
2019-02-06T05:13:25.498Z,3.95
2019-02-06T05:14:25.608Z,3.96
2019-02-06T05:15:25.990Z,3.94
2019-02-06T05:16:25.662Z,3.96
2019-02-06T05:17:25.506Z,3.96
2019-02-06T05:18:25.630Z,3.95
2019-02-06T05:19:27.317Z,3.96
2019-02-06T05:20:25.829Z,3.95
2019-02-06T05:21:25.488Z,3.95
2019-02-06T05:22:25.377Z,3.97
2019-02-06T05:23:25.712Z,3.97
2019-02-06T05:24:25.725Z,3.94
2019-02-06T05:25:25.545Z,3.94
2019-02-06T05:26:27.105Z,3.95
2019-02-06T05:27:25.642Z,3.93
2019-02-06T05:28:25.515Z,3.94
2019-02-06T05:29:25.423Z,3.92
2019-02-06T05:30:25.354Z,3.93
2019-02-06T05:31:25.699Z,3.92
2019-02-06T05:32:25.568Z,3.91
2019-02-06T05:33:25.664Z,3.91
2019-02-06T05:34:25.613Z,3.92
2019-02-06T05:35:25.696Z,3.93
2019-02-06T05:36:25.699Z,3.93
2019-02-06T05:37:32.657Z,3.92
2019-02-06T05:38:25.567Z,3.92
2019-02-06T05:39:25.625Z,3.92
2019-02-06T05:40:25.741Z,3.93
2019-02-06T05:41:27.099Z,3.95
2019-02-06T05:42:25.652Z,3.94
2019-02-06T05:43:25.566Z,3.93
2019-02-06T05:44:25.499Z,3.94
2019-02-06T05:45:25.379Z,3.93
2019-02-06T05:46:25.721Z,3.92
2019-02-06T05:47:25.405Z,3.91
2019-02-06T05:48:25.398Z,3.91
2019-02-06T05:49:25.379Z,3.91
2019-02-06T05:50:25.541Z,3.9
2019-02-06T05:51:25.329Z,3.91
2019-02-06T05:52:25.394Z,3.91
2019-02-06T05:53:25.318Z,3.89
2019-02-06T05:54:25.360Z,3.91
2019-02-06T05:55:25.719Z,3.9
2019-02-06T05:56:27.409Z,3.91
2019-02-06T05:57:25.659Z,3.93
2019-02-06T05:58:25.407Z,3.91
2019-02-06T05:59:25.338Z,3.91
2019-02-06T06:00:25.312Z,3.9
2019-02-06T06:01:25.405Z,3.9
2019-02-06T06:02:25.582Z,3.89
2019-02-06T06:03:25.290Z,3.89
2019-02-06T06:04:25.346Z,3.89
2019-02-06T06:05:25.516Z,3.9
2019-02-06T06:06:25.303Z,3.9
2019-02-06T06:07:25.294Z,3.91
2019-02-06T06:08:25.322Z,3.89
2019-02-06T06:09:25.352Z,3.9
2019-02-06T06:10:25.326Z,3.89
2019-02-06T06:11:27.299Z,3.9
2019-02-06T06:12:25.299Z,3.9
2019-02-06T06:13:25.317Z,3.89
2019-02-06T06:14:25.495Z,3.91
2019-02-06T06:15:25.306Z,3.9
2019-02-06T06:16:25.327Z,3.93
2019-02-06T06:17:25.346Z,3.95
2019-02-06T06:18:26.052Z,3.93
2019-02-06T06:19:25.658Z,3.91
2019-02-06T06:20:25.583Z,3.91
2019-02-06T06:21:25.318Z,3.89
2019-02-06T06:22:25.278Z,3.91
2019-02-06T06:23:26.017Z,3.9
2019-02-06T06:24:25.730Z,3.9
2019-02-06T06:25:25.663Z,3.9
2019-02-06T06:26:27.498Z,3.89
2019-02-06T06:27:25.331Z,3.88
2019-02-06T06:28:25.552Z,3.89
2019-02-06T06:29:25.398Z,3.9
2019-02-06T06:30:25.309Z,3.89
2019-02-06T06:31:25.270Z,3.9
2019-02-06T06:32:25.416Z,3.9
2019-02-06T06:33:26.520Z,3.9
2019-02-06T06:34:25.595Z,3.89
2019-02-06T06:35:25.579Z,3.91
2019-02-06T06:36:25.332Z,3.89
2019-02-06T06:37:25.280Z,3.88
2019-02-06T06:38:25.428Z,3.89
2019-02-06T06:39:25.410Z,3.89
2019-02-06T06:40:25.458Z,3.9
2019-02-06T06:41:27.186Z,3.9
2019-02-06T06:42:25.275Z,3.9
2019-02-06T06:43:25.463Z,3.9
2019-02-06T06:44:25.317Z,3.9
2019-02-06T06:45:25.305Z,3.9
2019-02-06T06:46:27.142Z,3.93
2019-02-06T06:47:25.338Z,3.93
2019-02-06T06:48:25.374Z,3.93
2019-02-06T06:49:25.433Z,3.93
2019-02-06T06:50:25.581Z,3.94
2019-02-06T06:51:25.576Z,3.91
2019-02-06T06:52:27.089Z,3.92
2019-02-06T06:53:25.331Z,3.93
2019-02-06T06:54:25.817Z,3.93
2019-02-06T06:55:25.711Z,3.92
2019-02-06T06:56:26.318Z,3.91
2019-02-06T06:57:25.202Z,3.94
2019-02-06T06:58:25.507Z,3.92
2019-02-06T06:59:25.458Z,3.9
2019-02-06T07:00:25.879Z,3.92
2019-02-06T07:01:25.300Z,3.92
2019-02-06T07:02:25.443Z,3.9
2019-02-06T07:03:25.761Z,3.92
2019-02-06T07:04:27.338Z,3.93
2019-02-06T07:05:25.629Z,3.94
2019-02-06T07:06:25.273Z,3.94
2019-02-06T07:07:25.679Z,3.92
2019-02-06T07:08:25.286Z,3.92
2019-02-06T07:09:25.267Z,3.92
2019-02-06T07:10:25.411Z,3.92
2019-02-06T07:11:25.568Z,3.94
2019-02-06T07:12:27.543Z,3.95
2019-02-06T07:13:25.622Z,3.94
2019-02-06T07:14:25.264Z,3.92
2019-02-06T07:15:25.649Z,3.93
2019-02-06T07:16:25.549Z,3.92
2019-02-06T07:17:27.069Z,3.92
2019-02-06T07:18:25.446Z,3.92
2019-02-06T07:19:26.412Z,3.91
2019-02-06T07:20:25.170Z,3.93
2019-02-06T07:21:25.225Z,3.93
2019-02-06T07:22:25.365Z,3.91
2019-02-06T07:23:26.704Z,3.9
2019-02-06T07:24:25.201Z,3.9
2019-02-06T07:25:25.214Z,3.9
2019-02-06T07:26:25.501Z,3.9
2019-02-06T07:27:26.669Z,3.9
2019-02-06T07:28:25.181Z,3.9
2019-02-06T07:29:25.188Z,3.89
2019-02-06T07:30:25.187Z,3.9
2019-02-06T07:31:25.170Z,3.9
2019-02-06T07:32:25.301Z,3.9
2019-02-06T07:33:27.028Z,3.92
2019-02-06T07:34:25.523Z,3.91
2019-02-06T07:35:25.165Z,3.93
2019-02-06T07:36:25.982Z,3.91
2019-02-06T07:37:25.209Z,3.92
2019-02-06T07:38:25.498Z,3.92
2019-02-06T07:39:25.333Z,3.91
2019-02-06T07:40:25.487Z,3.94
2019-02-06T07:41:25.395Z,3.92
2019-02-06T07:42:26.970Z,3.92
2019-02-06T07:43:25.305Z,3.93
2019-02-06T07:44:25.164Z,3.94
2019-02-06T07:45:25.152Z,3.94
2019-02-06T07:46:25.282Z,3.94
2019-02-06T07:47:25.155Z,3.94
2019-02-06T07:48:25.193Z,3.93
2019-02-06T07:49:25.147Z,3.94
2019-02-06T07:50:26.822Z,3.95
2019-02-06T07:51:25.569Z,3.93
2019-02-06T07:52:25.163Z,3.96
2019-02-06T07:53:25.148Z,3.96
2019-02-06T07:54:25.190Z,3.96
2019-02-06T07:55:25.309Z,3.97
2019-02-06T07:56:25.187Z,3.95
2019-02-06T07:57:26.367Z,3.96
2019-02-06T07:58:25.158Z,3.96
2019-02-06T07:59:25.169Z,3.97
2019-02-06T08:00:25.169Z,3.96
2019-02-06T08:01:25.150Z,3.97
2019-02-06T08:02:25.424Z,3.96
2019-02-06T08:03:25.124Z,3.96
2019-02-06T08:04:25.765Z,3.97
2019-02-06T08:05:27.136Z,3.96
2019-02-06T08:06:26.777Z,3.98
2019-02-06T08:07:25.155Z,3.98
2019-02-06T08:08:36.621Z,3.96
2019-02-06T08:09:25.097Z,3.97
2019-02-06T08:10:25.240Z,3.97
2019-02-06T08:11:25.109Z,3.98
2019-02-06T08:12:25.698Z,3.97
2019-02-06T08:13:25.454Z,3.98
2019-02-06T08:14:26.967Z,3.99
2019-02-06T08:15:25.144Z,3.98
2019-02-06T08:16:25.513Z,3.97
2019-02-06T08:17:25.631Z,3.99
2019-02-06T08:18:25.641Z,3.99
2019-02-06T08:19:25.355Z,4
2019-02-06T08:20:28.477Z,4
2019-02-06T08:21:25.209Z,4
2019-02-06T08:22:25.457Z,4
2019-02-06T08:23:25.171Z,4
2019-02-06T08:24:25.567Z,4.01
2019-02-06T08:25:25.349Z,4.01
2019-02-06T08:26:25.391Z,4.02
2019-02-06T08:27:26.812Z,4.02
2019-02-06T08:28:27.376Z,4.02
2019-02-06T08:29:25.720Z,4.03
2019-02-06T08:30:25.511Z,4.03
2019-02-06T08:31:25.177Z,4.03
2019-02-06T08:32:25.278Z,4.04
2019-02-06T08:33:25.433Z,4.04
2019-02-06T08:34:26.939Z,4.03
2019-02-06T08:35:25.409Z,4.02
2019-02-06T08:36:25.315Z,4.04
2019-02-06T08:37:25.086Z,4.04
2019-02-06T08:38:25.147Z,4.05
2019-02-06T08:39:26.291Z,4.06
2019-02-06T08:40:25.545Z,4.06
2019-02-06T08:41:25.067Z,4.04
2019-02-06T08:42:25.587Z,4.06
2019-02-06T08:43:26.353Z,4.06
2019-02-06T08:44:25.453Z,4.06
2019-02-06T08:45:25.107Z,4.06
2019-02-06T08:46:25.342Z,4.06
2019-02-06T08:47:25.862Z,4.07
2019-02-06T08:48:25.064Z,4.07
2019-02-06T08:49:25.174Z,4.05
2019-02-06T08:50:25.115Z,4.04
2019-02-06T08:51:26.810Z,4.04
2019-02-06T08:52:25.056Z,4.04
2019-02-06T08:53:25.051Z,4.04
2019-02-06T08:54:25.314Z,4.04
2019-02-06T08:55:25.376Z,4.05
2019-02-06T08:56:25.368Z,4.05
2019-02-06T08:57:25.388Z,4.05
2019-02-06T08:58:26.271Z,4.05
2019-02-06T08:59:25.390Z,4.05
2019-02-06T09:00:25.512Z,4.06
2019-02-06T09:01:25.267Z,4.1
2019-02-06T09:02:25.519Z,4.07
2019-02-06T09:03:25.213Z,4.07
2019-02-06T09:04:25.102Z,4.07
2019-02-06T09:05:25.313Z,4.08
2019-02-06T09:06:27.018Z,4.07
2019-02-06T09:07:25.179Z,4.07
2019-02-06T09:08:25.074Z,4.07
2019-02-06T09:09:25.575Z,4.06
2019-02-06T09:10:25.075Z,4.05
2019-02-06T09:11:25.294Z,4.07
2019-02-06T09:12:25.027Z,4.07
2019-02-06T09:13:25.152Z,4.06
2019-02-06T09:14:25.167Z,4.05
2019-02-06T09:15:27.894Z,4.03
2019-02-06T09:16:25.300Z,4.03
2019-02-06T09:17:25.040Z,4.03
2019-02-06T09:18:25.321Z,4.03
2019-02-06T09:19:25.470Z,4.05
2019-02-06T09:20:25.164Z,4.03
2019-02-06T09:21:26.463Z,4.05
2019-02-06T09:22:26.884Z,4.03
2019-02-06T09:23:24.996Z,4.03
2019-02-06T09:24:25.268Z,4.04
2019-02-06T09:25:25.414Z,4.05
2019-02-06T09:26:25.274Z,4.06
2019-02-06T09:27:25.110Z,4.06
2019-02-06T09:28:25.091Z,4.05
2019-02-06T09:29:26.860Z,4.06
2019-02-06T09:30:25.087Z,4.07
2019-02-06T09:31:25.056Z,4.07
2019-02-06T09:32:25.158Z,4.07
2019-02-06T09:33:25.062Z,4.07
2019-02-06T09:34:25.098Z,4.07
2019-02-06T09:35:25.119Z,4.07
2019-02-06T09:36:25.833Z,4.1
2019-02-06T09:37:25.071Z,4.1
2019-02-06T09:38:25.138Z,4.11
2019-02-06T09:39:25.029Z,4.09
2019-02-06T09:40:25.074Z,4.12
2019-02-06T09:41:25.048Z,4.12
2019-02-06T09:42:25.137Z,4.11
2019-02-06T09:43:27.785Z,4.1
2019-02-06T09:44:26.952Z,4.12
2019-02-06T09:45:25.111Z,4.13
2019-02-06T09:46:25.046Z,4.12
2019-02-06T09:47:25.033Z,4.12
2019-02-06T09:48:24.958Z,4.13
2019-02-06T09:49:25.267Z,4.13
2019-02-06T09:50:25.124Z,4.13
2019-02-06T09:51:25.447Z,4.14
2019-02-06T09:52:30.469Z,4.14
2019-02-06T09:53:24.999Z,4.14
2019-02-06T09:54:25.798Z,4.15
2019-02-06T09:55:25.086Z,4.14
2019-02-06T09:56:25.034Z,4.14
2019-02-06T09:57:25.232Z,4.15
2019-02-06T09:58:25.341Z,4.15
2019-02-06T09:59:27.257Z,4.16
2019-02-06T10:00:25.389Z,4.15
2019-02-06T10:01:25.853Z,4.14
2019-02-06T10:02:26.113Z,4.16
2019-02-06T10:03:25.189Z,4.16
2019-02-06T10:04:25.208Z,4.15
2019-02-06T10:05:25.076Z,4.17
2019-02-06T10:06:24.965Z,4.18
2019-02-06T10:07:24.963Z,4.18
2019-02-06T10:08:25.224Z,4.15
2019-02-06T10:09:26.061Z,4.17
2019-02-06T10:10:25.045Z,4.17
2019-02-06T10:11:25.161Z,4.19
2019-02-06T10:12:24.939Z,4.19
2019-02-06T10:13:25.126Z,4.2
2019-02-06T10:14:26.740Z,4.2
2019-02-06T10:15:25.056Z,4.23
2019-02-06T10:16:24.932Z,4.23
2019-02-06T10:17:24.940Z,4.22
2019-02-06T10:18:26.800Z,4.22
2019-02-06T10:19:25.251Z,4.23
2019-02-06T10:20:25.058Z,4.22
2019-02-06T10:21:25.104Z,4.17
2019-02-06T10:22:26.896Z,4.22
2019-02-06T10:23:24.928Z,4.23
2019-02-06T10:24:25.216Z,4.22
2019-02-06T10:25:25.238Z,4.22
2019-02-06T10:26:25.180Z,4.2
2019-02-06T10:27:25.163Z,4.23
2019-02-06T10:28:26.192Z,4.24
2019-02-06T10:29:25.134Z,4.26
2019-02-06T10:30:25.198Z,4.26
2019-02-06T10:31:25.205Z,4.23
2019-02-06T10:32:25.358Z,4.24
2019-02-06T10:33:25.152Z,4.26
2019-02-06T10:34:25.081Z,4.28
2019-02-06T10:35:25.209Z,4.28
2019-02-06T10:36:25.050Z,4.31
2019-02-06T10:37:29.326Z,4.3
2019-02-06T10:38:25.224Z,4.25
2019-02-06T10:39:35.164Z,4.31
2019-02-06T10:40:24.918Z,4.32
2019-02-06T10:41:25.097Z,4.33
2019-02-06T10:42:25.011Z,4.32
2019-02-06T10:43:36.180Z,4.32
2019-02-06T10:44:25.048Z,4.34
2019-02-06T10:45:26.947Z,4.34
2019-02-06T10:46:24.870Z,4.29
2019-02-06T10:47:24.917Z,4.32
2019-02-06T10:48:25.300Z,4.33
2019-02-06T10:49:25.418Z,4.33
2019-02-06T10:50:24.868Z,4.31
2019-02-06T10:51:25.043Z,4.33
2019-02-06T10:52:26.069Z,4.32
2019-02-06T10:53:24.926Z,4.34
2019-02-06T10:54:24.981Z,4.36
2019-02-06T10:55:24.861Z,4.37
2019-02-06T10:56:25.362Z,4.38
2019-02-06T10:57:24.944Z,4.39
2019-02-06T10:58:25.172Z,4.39
2019-02-06T10:59:24.884Z,4.38
2019-02-06T11:00:29.781Z,4.37
2019-02-06T11:01:25.379Z,4.36
2019-02-06T11:02:25.182Z,4.36
2019-02-06T11:03:25.001Z,4.39
2019-02-06T11:04:24.842Z,4.39
2019-02-06T11:05:24.852Z,4.39
2019-02-06T11:06:25.301Z,4.41
2019-02-06T11:07:25.334Z,4.42
2019-02-06T11:08:25.233Z,4.42
2019-02-06T11:09:25.496Z,4.41
2019-02-06T11:10:24.839Z,4.39
2019-02-06T11:11:25.048Z,4.37
2019-02-06T11:12:24.949Z,4.38
2019-02-06T11:13:25.141Z,4.43
2019-02-06T11:14:24.859Z,4.46
2019-02-06T11:15:26.835Z,4.45
2019-02-06T11:16:24.856Z,4.44
2019-02-06T11:17:24.837Z,4.45
2019-02-06T11:18:24.842Z,4.46
2019-02-06T11:19:24.834Z,4.46
2019-02-06T11:20:24.796Z,4.43
2019-02-06T11:21:25.426Z,4.47
2019-02-06T11:22:24.908Z,4.49
2019-02-06T11:23:26.787Z,4.47
2019-02-06T11:24:27.174Z,4.46
2019-02-06T11:25:24.853Z,4.48
2019-02-06T11:26:24.844Z,4.47
2019-02-06T11:27:24.859Z,4.5
2019-02-06T11:28:24.809Z,4.5
2019-02-06T11:29:25.268Z,4.49
2019-02-06T11:30:25.279Z,4.52
2019-02-06T11:31:24.833Z,4.49
2019-02-06T11:32:25.257Z,4.53
2019-02-06T11:33:25.184Z,4.5
2019-02-06T11:34:24.842Z,4.53
2019-02-06T11:35:25.040Z,4.55
2019-02-06T11:36:25.292Z,4.58
2019-02-06T11:37:24.828Z,4.55
2019-02-06T11:38:28.321Z,4.54
2019-02-06T11:39:25.148Z,4.56
2019-02-06T11:40:24.859Z,4.55
2019-02-06T11:41:25.013Z,4.59
2019-02-06T11:42:25.094Z,4.55
2019-02-06T11:43:24.785Z,4.57
2019-02-06T11:44:24.868Z,4.54
2019-02-06T11:45:25.184Z,4.55
2019-02-06T11:46:26.731Z,4.55
2019-02-06T11:47:24.901Z,4.58
2019-02-06T11:48:25.006Z,4.58
2019-02-06T11:49:24.854Z,4.61
2019-02-06T11:50:24.995Z,4.6
2019-02-06T11:51:26.636Z,4.58
2019-02-06T11:52:25.200Z,4.61
2019-02-06T11:53:26.857Z,4.63
2019-02-06T11:54:24.990Z,4.63
2019-02-06T11:55:24.922Z,4.69
2019-02-06T11:56:24.763Z,4.66
2019-02-06T11:57:25.288Z,4.68
2019-02-06T11:58:25.054Z,4.68
2019-02-06T11:59:25.025Z,4.69
2019-02-06T12:00:24.913Z,4.71
2019-02-06T12:01:26.728Z,4.71
2019-02-06T12:02:24.871Z,4.73
2019-02-06T12:03:24.837Z,4.74
2019-02-06T12:04:24.814Z,4.7
2019-02-06T12:05:25.185Z,4.72
2019-02-06T12:06:24.841Z,4.68
2019-02-06T12:07:24.770Z,4.7
2019-02-06T12:08:24.844Z,4.74
2019-02-06T12:09:26.987Z,4.73
2019-02-06T12:10:25.325Z,4.75
2019-02-06T12:11:25.237Z,4.78
2019-02-06T12:12:24.829Z,4.71
2019-02-06T12:13:25.033Z,4.7
2019-02-06T12:14:25.122Z,4.68
2019-02-06T12:15:25.060Z,4.66
2019-02-06T12:16:26.663Z,4.69
2019-02-06T12:17:24.830Z,4.71
2019-02-06T12:18:24.751Z,4.65
2019-02-06T12:19:25.778Z,4.69
2019-02-06T12:20:25.296Z,4.72
2019-02-06T12:21:24.742Z,4.77
2019-02-06T12:22:25.206Z,4.73
2019-02-06T12:23:32.765Z,4.79
2019-02-06T12:24:26.881Z,4.7
2019-02-06T12:25:25.214Z,4.77
2019-02-06T12:26:24.850Z,4.8
2019-02-06T12:27:25.129Z,4.73
2019-02-06T12:28:25.224Z,4.7
2019-02-06T12:29:25.155Z,4.7
2019-02-06T12:30:24.922Z,4.73
2019-02-06T12:31:26.007Z,4.72
2019-02-06T12:32:25.281Z,4.72
2019-02-06T12:33:24.874Z,4.79
2019-02-06T12:34:25.184Z,4.74
2019-02-06T12:35:24.880Z,4.75
2019-02-06T12:36:24.734Z,4.75
2019-02-06T12:37:24.745Z,4.75
2019-02-06T12:38:24.797Z,4.79
2019-02-06T12:39:24.807Z,4.83
2019-02-06T12:40:25.117Z,4.82
2019-02-06T12:41:24.869Z,4.81
2019-02-06T12:42:24.766Z,4.8
2019-02-06T12:43:24.769Z,4.75
2019-02-06T12:44:25.158Z,4.79
2019-02-06T12:45:26.513Z,4.83
2019-02-06T12:46:25.052Z,4.81
2019-02-06T12:47:27.161Z,4.82
2019-02-06T12:48:24.890Z,4.84
2019-02-06T12:49:24.717Z,4.86
2019-02-06T12:50:24.779Z,4.85
2019-02-06T12:51:24.737Z,4.76
2019-02-06T12:52:25.202Z,4.72
2019-02-06T12:53:30.659Z,4.75
2019-02-06T12:54:25.235Z,4.84
2019-02-06T12:55:24.906Z,4.85
2019-02-06T12:56:24.902Z,4.86
2019-02-06T12:57:37.713Z,4.88
2019-02-06T12:58:26.647Z,4.82
2019-02-06T12:59:24.976Z,4.85
2019-02-06T13:00:26.709Z,4.83
2019-02-06T13:01:24.756Z,4.79
2019-02-06T13:02:24.955Z,4.79
2019-02-06T13:03:25.414Z,4.84
2019-02-06T13:04:24.961Z,4.9
2019-02-06T13:05:25.884Z,4.81
2019-02-06T13:06:24.741Z,4.87
2019-02-06T13:07:24.871Z,4.85
2019-02-06T13:08:24.671Z,4.84
2019-02-06T13:09:24.667Z,4.87
2019-02-06T13:10:34.742Z,4.89
2019-02-06T13:11:24.750Z,4.89
2019-02-06T13:12:27.642Z,4.89
2019-02-06T13:13:24.729Z,4.8
2019-02-06T13:14:24.743Z,4.89
2019-02-06T13:15:26.603Z,4.82
2019-02-06T13:16:24.949Z,4.88
2019-02-06T13:17:27.083Z,4.83
2019-02-06T13:18:24.871Z,4.77
2019-02-06T13:19:24.796Z,4.8
2019-02-06T13:20:24.721Z,4.87
2019-02-06T13:21:25.060Z,4.87
2019-02-06T13:22:24.843Z,4.84
2019-02-06T13:23:26.861Z,4.85